Time;durP1;ratioP1;P1;durP2;ratioP2;P2;SDS_P1;SDS_P2;PMS_P1;PMS_P2;Temp;Humidity;BMP_temperature;BMP_pressure;BME280_temperature;BME280_humidity;BME280_pressure;Samples;Min_cycle;Max_cycle;Signal;HPM_P1;HPM_P2
2023/09/08 04:07:24;;;;;;;9.93;4.70;;;;;;;15.25;100.00;101063.72;6157349;28;20204;31
2023/09/08 04:10:28;;;;;;;8.48;4.75;;;;;;;15.34;100.00;101060.69;5219382;34;33482;-82
2023/09/08 04:13:32;;;;;;;5.43;4.25;;;;;;;15.30;100.00;101064.84;5216110;34;34712;-82
2023/09/08 04:16:35;;;;;;;6.68;4.15;;;;;;;15.27;100.00;101050.78;5221394;34;35296;-84
2023/09/08 04:19:39;;;;;;;9.48;5.15;;;;;;;15.23;100.00;101061.19;5223375;34;33931;-84
2023/09/08 04:22:43;;;;;;;7.70;4.50;;;;;;;15.23;100.00;101065.78;5213068;34;33801;-84
2023/09/08 04:25:47;;;;;;;5.78;4.28;;;;;;;15.23;100.00;101063.91;5214727;34;34946;-84
2023/09/08 04:28:52;;;;;;;5.80;4.22;;;;;;;15.25;100.00;101066.44;5211853;34;34003;-84
2023/09/08 04:31:55;;;;;;;8.85;4.72;;;;;;;15.37;100.00;101060.31;5207570;34;33651;-85
2023/09/08 04:34:58;;;;;;;8.23;4.55;;;;;;;15.43;100.00;101064.13;5208549;34;33579;-84
2023/09/08 04:38:02;;;;;;;6.55;4.12;;;;;;;15.41;100.00;101063.47;5207392;34;33874;-84
2023/09/08 04:41:07;;;;;;;9.27;4.40;;;;;;;15.38;100.00;101063.84;5219766;34;34735;-84
2023/09/08 04:44:11;;;;;;;5.80;4.37;;;;;;;15.43;100.00;101077.69;5219748;34;35425;-84
2023/09/08 04:47:14;;;;;;;7.40;4.60;;;;;;;15.51;100.00;101069.44;5207486;34;33841;-84
2023/09/08 04:50:18;;;;;;;7.90;4.82;;;;;;;15.60;100.00;101064.72;5219980;34;34689;-84
2023/09/08 04:53:21;;;;;;;8.63;5.30;;;;;;;15.73;100.00;101078.44;5196260;34;33836;-87
2023/09/08 04:56:24;;;;;;;8.88;5.03;;;;;;;15.78;100.00;101077.84;5207358;34;33966;-88
2023/09/08 04:59:28;;;;;;;17.83;4.78;;;;;;;15.93;100.00;101072.34;5219945;34;33632;-88
2023/09/08 05:02:31;;;;;;;9.13;5.43;;;;;;;15.93;100.00;101073.19;5218496;34;34380;-88
2023/09/08 05:05:34;;;;;;;6.55;4.75;;;;;;;15.96;100.00;101070.06;5220328;34;33752;-85
2023/09/08 05:08:37;;;;;;;9.15;4.90;;;;;;;16.03;100.00;101070.97;5218964;34;33956;-85
2023/09/08 05:11:41;;;;;;;8.68;4.57;;;;;;;16.06;100.00;101075.19;5214967;34;33818;-85
2023/09/08 05:14:45;;;;;;;7.93;4.65;;;;;;;16.22;100.00;101076.75;5190701;34;34255;-85
2023/09/08 05:17:48;;;;;;;7.40;5.20;;;;;;;16.27;100.00;101072.41;5202382;34;34176;-84
2023/09/08 05:20:51;;;;;;;8.60;5.18;;;;;;;16.37;100.00;101076.66;5201386;34;33656;-85
2023/09/08 05:23:55;;;;;;;6.18;4.82;;;;;;;16.43;100.00;101076.69;5201370;34;34716;-85
2023/09/08 05:26:58;;;;;;;6.97;4.50;;;;;;;16.57;100.00;101090.38;5201193;34;33948;-84
2023/09/08 05:30:01;;;;;;;7.80;5.03;;;;;;;16.63;100.00;101082.25;5200298;34;33794;-85
2023/09/08 05:33:07;;;;;;;8.38;4.85;;;;;;;16.78;100.00;101085.69;5191135;34;33656;-84
2023/09/08 05:36:10;;;;;;;8.32;4.82;;;;;;;16.98;100.00;101085.81;5179256;34;34620;-84
2023/09/08 05:39:19;;;;;;;10.27;5.35;;;;;;;17.08;100.00;101084.56;5168616;34;33929;-84
2023/09/08 05:42:22;;;;;;;9.02;4.87;;;;;;;17.17;100.00;101086.06;5183834;34;34471;-84
2023/09/08 05:45:25;;;;;;;9.00;5.22;;;;;;;17.28;100.00;101082.78;5206093;34;33567;-85
2023/09/08 05:48:29;;;;;;;10.25;5.90;;;;;;;17.39;100.00;101084.91;5213703;34;34475;-84
2023/09/08 05:51:32;;;;;;;9.55;5.45;;;;;;;17.50;100.00;101078.03;5201317;34;33804;-84
2023/09/08 05:54:36;;;;;;;9.43;5.43;;;;;;;17.66;100.00;101079.50;5179832;34;33809;-84
2023/09/08 05:57:40;;;;;;;8.60;5.28;;;;;;;17.78;100.00;101082.47;5191004;34;33854;-84
2023/09/08 06:00:43;;;;;;;9.48;5.32;;;;;;;17.91;100.00;101079.78;5191434;34;33786;-84
2023/09/08 06:03:48;;;;;;;10.00;5.43;;;;;;;18.10;100.00;101078.91;5199352;34;33952;-84
2023/09/08 06:06:51;;;;;;;8.32;5.20;;;;;;;18.28;100.00;101082.91;5189511;34;33489;-84
2023/09/08 06:09:56;;;;;;;10.35;5.80;;;;;;;18.32;100.00;101085.00;5194815;34;34416;-84
2023/09/08 06:12:59;;;;;;;9.73;5.20;;;;;;;18.47;100.00;101092.13;5184281;34;34746;-84
2023/09/08 06:16:02;;;;;;;9.07;5.30;;;;;;;18.73;100.00;101091.22;5184242;34;33552;-84
2023/09/08 06:19:05;;;;;;;11.73;5.05;;;;;;;18.79;100.00;101091.22;5193574;34;33425;-84
2023/09/08 06:22:09;;;;;;;9.00;5.40;;;;;;;19.01;100.00;101096.38;5219060;34;33529;-85
2023/09/08 06:25:12;;;;;;;9.48;5.03;;;;;;;19.19;100.00;101098.44;5202393;34;34162;-84
2023/09/08 06:28:16;;;;;;;11.65;5.55;;;;;;;19.41;100.00;101099.75;5224521;34;33766;-84
2023/09/08 06:31:19;;;;;;;8.30;4.62;;;;;;;19.61;100.00;101101.56;5214602;34;34097;-84
2023/09/08 06:34:23;;;;;;;8.80;5.05;;;;;;;19.75;100.00;101097.72;5180382;34;34029;-84
2023/09/08 06:37:26;;;;;;;10.55;5.60;;;;;;;19.83;100.00;101096.59;5192111;34;34360;-84
2023/09/08 06:40:30;;;;;;;7.40;4.70;;;;;;;19.92;100.00;101098.00;5195962;34;34902;-84
2023/09/08 06:43:33;;;;;;;5.95;4.25;;;;;;;20.04;100.00;101092.66;5193849;34;33877;-85
2023/09/08 06:46:37;;;;;;;9.48;5.28;;;;;;;20.20;99.43;101092.09;5187581;34;33549;-84
2023/09/08 06:49:41;;;;;;;11.35;5.00;;;;;;;20.41;98.50;101093.56;5199466;34;33515;-85
2023/09/08 06:52:44;;;;;;;8.93;4.55;;;;;;;20.58;96.54;101089.22;5208836;34;33745;-84
2023/09/08 06:55:47;;;;;;;7.32;4.68;;;;;;;20.83;94.83;101091.06;5221121;34;35322;-85
2023/09/08 06:58:51;;;;;;;10.32;5.32;;;;;;;20.99;94.86;101086.88;5204536;34;33388;-85
2023/09/08 07:01:54;;;;;;;7.05;4.72;;;;;;;21.16;93.14;101084.34;5201927;34;33449;-88
2023/09/08 07:04:58;;;;;;;10.23;5.30;;;;;;;21.33;94.23;101088.13;5198730;33;33735;-87
2023/09/08 07:08:02;;;;;;;8.40;4.40;;;;;;;21.47;90.38;101091.53;5224376;34;35423;-88
2023/09/08 07:11:06;;;;;;;8.25;4.62;;;;;;;21.50;88.22;101083.69;5182324;34;34601;-85
2023/09/08 07:14:09;;;;;;;9.02;4.60;;;;;;;21.74;88.58;101079.09;5179573;34;33785;-85
2023/09/08 07:17:13;;;;;;;5.95;4.30;;;;;;;21.59;87.42;101077.87;5193533;34;34556;-85
2023/09/08 07:20:17;;;;;;;5.78;4.32;;;;;;;21.67;87.70;101078.34;5196402;34;33398;-85
2023/09/08 07:23:21;;;;;;;5.60;4.53;;;;;;;21.90;87.51;101076.75;5208581;34;33825;-85
2023/09/08 07:26:24;;;;;;;6.97;4.93;;;;;;;22.02;86.04;101074.84;5173536;34;34942;-85
2023/09/08 07:29:27;;;;;;;8.45;4.82;;;;;;;22.25;87.00;101071.31;5197252;34;33490;-84
2023/09/08 07:32:30;;;;;;;7.10;5.18;;;;;;;22.44;83.06;101063.00;5197371;34;33543;-85
2023/09/08 07:35:38;;;;;;;8.23;5.30;;;;;;;22.52;81.64;101062.59;5191904;34;33895;-85
2023/09/08 07:38:41;;;;;;;7.65;5.10;;;;;;;22.47;81.41;101063.34;5184071;34;33463;-85
2023/09/08 07:41:45;;;;;;;9.55;4.78;;;;;;;22.66;82.17;101057.69;5190465;34;33995;-84
2023/09/08 07:44:48;;;;;;;8.02;5.00;;;;;;;22.85;81.41;101056.47;5193920;34;34442;-84
2023/09/08 07:47:51;;;;;;;6.90;4.57;;;;;;;23.09;79.27;101049.00;5178453;34;34560;-84
2023/09/08 07:50:58;;;;;;;7.95;4.45;;;;;;;23.30;78.49;101048.31;5162858;34;33425;-85
2023/09/08 07:54:03;;;;;;;7.03;4.87;;;;;;;23.08;77.60;101052.84;5186393;34;35224;-85
2023/09/08 07:57:06;;;;;;;9.40;5.30;;;;;;;23.31;78.85;101049.16;5216518;34;34859;-85
2023/09/08 08:00:12;;;;;;;7.53;4.50;;;;;;;23.41;77.33;101057.59;5191487;34;34177;-85
2023/09/08 08:03:19;;;;;;;8.80;4.80;;;;;;;23.44;77.64;101059.03;5197936;34;33791;-84
2023/09/08 08:06:21;;;;;;;8.02;5.05;;;;;;;23.57;75.57;101050.44;5206048;34;34373;-84
2023/09/08 08:09:25;;;;;;;9.45;5.45;;;;;;;23.61;77.80;101054.37;5187685;34;33506;-84
2023/09/08 08:12:47;;;;;;;6.85;4.97;;;;;;;23.73;76.55;101055.19;5183591;34;33866;-82
2023/09/08 08:16:07;;;;;;;7.80;5.12;;;;;;;23.81;75.21;101047.59;5209640;34;35364;-83
2023/09/08 08:19:26;;;;;;;11.15;5.35;;;;;;;23.95;77.53;101046.16;5205327;34;33788;-83
2023/09/08 08:22:29;;;;;;;11.38;5.60;;;;;;;24.32;76.18;101042.91;5195231;34;34006;-83
2023/09/08 08:25:33;;;;;;;8.82;4.97;;;;;;;24.51;73.27;101049.81;5187846;34;32980;-83
2023/09/08 08:28:36;;;;;;;7.40;4.95;;;;;;;24.70;71.44;101052.25;5192615;34;33915;-87
2023/09/08 08:31:39;;;;;;;8.75;4.50;;;;;;;24.33;73.28;101052.81;5194612;34;33677;-87
2023/09/08 08:34:42;;;;;;;7.55;5.05;;;;;;;24.53;73.19;101035.78;5194881;34;34660;-88
2023/09/08 08:37:46;;;;;;;7.80;4.47;;;;;;;24.44;71.67;101040.87;5180869;34;34713;-87
2023/09/08 08:40:49;;;;;;;8.52;4.90;;;;;;;24.73;71.67;101032.47;5190542;34;34051;-84
2023/09/08 08:43:53;;;;;;;7.85;4.68;;;;;;;24.69;70.14;101031.28;5202768;34;34705;-84
2023/09/08 08:46:57;;;;;;;5.85;4.30;;;;;;;24.77;70.06;101026.16;5189872;34;33925;-84
2023/09/08 08:50:01;;;;;;;7.75;4.47;;;;;;;24.93;69.61;101016.19;5192737;34;34042;-83
2023/09/08 08:53:06;;;;;;;6.05;4.78;;;;;;;25.26;69.87;101026.22;5206713;34;33893;-83
2023/09/08 08:56:19;;;;;;;12.70;5.12;;;;;;;25.43;67.88;101034.38;5212585;34;33520;-83
2023/09/08 08:59:23;;;;;;;9.75;4.97;;;;;;;25.69;69.67;101024.41;5192458;34;33829;-84
2023/09/08 09:02:28;;;;;;;8.90;4.78;;;;;;;25.63;68.98;101021.88;5190377;34;34729;-83
2023/09/08 09:05:35;;;;;;;9.50;4.70;;;;;;;25.62;68.87;101022.97;5201012;34;34645;-83
2023/09/08 09:08:39;;;;;;;9.45;4.70;;;;;;;25.60;67.83;101025.16;5187281;34;34435;-83
2023/09/08 09:11:42;;;;;;;9.27;5.10;;;;;;;25.67;67.42;101010.06;5190455;34;34733;-83
2023/09/08 09:14:49;;;;;;;6.43;4.28;;;;;;;25.54;68.37;101014.09;5202046;34;34223;-83
2023/09/08 09:18:06;;;;;;;8.93;4.70;;;;;;;25.61;68.84;101013.03;5199173;34;34596;-83
2023/09/08 09:21:09;;;;;;;12.25;4.72;;;;;;;25.77;63.22;101009.31;5201704;34;34545;-83
2023/09/08 09:24:17;;;;;;;10.80;4.75;;;;;;;25.97;63.83;101004.00;5201548;34;33899;-83
2023/09/08 09:27:22;;;;;;;10.85;4.65;;;;;;;26.24;66.74;101003.06;5196856;34;33775;-83
2023/09/08 09:30:27;;;;;;;7.82;4.40;;;;;;;26.52;65.18;101003.75;5192618;34;33562;-83
2023/09/08 09:33:31;;;;;;;10.05;4.37;;;;;;;26.60;61.38;101004.09;5200472;34;33922;-83
2023/09/08 09:36:42;;;;;;;7.18;4.87;;;;;;;26.65;62.57;100997.75;5199411;34;33299;-83
2023/09/08 09:39:50;;;;;;;7.03;4.28;;;;;;;26.89;60.82;101001.69;5205289;34;34414;-83
2023/09/08 09:42:53;;;;;;;7.03;4.80;;;;;;;26.94;59.81;101005.56;5222793;34;34244;-83
2023/09/08 09:45:56;;;;;;;11.07;4.80;;;;;;;27.08;59.08;101003.97;5203428;34;34003;-84
2023/09/08 09:49:00;;;;;;;9.32;5.12;;;;;;;27.16;60.42;101005.41;5205638;34;34396;-83
2023/09/08 09:52:02;;;;;;;9.70;4.03;;;;;;;27.14;59.44;100995.44;5191283;34;33792;-83
2023/09/08 09:55:07;;;;;;;5.70;3.97;;;;;;;27.24;56.60;100997.41;5205630;34;34005;-83
2023/09/08 09:58:11;;;;;;;6.95;4.47;;;;;;;27.40;56.67;100995.47;5191930;34;33505;-83
2023/09/08 10:01:18;;;;;;;9.05;4.60;;;;;;;27.51;54.94;100990.78;5188685;34;34280;-84
2023/09/08 10:04:21;;;;;;;6.90;4.05;;;;;;;27.77;54.32;100992.44;5190096;34;33782;-83
2023/09/08 10:07:24;;;;;;;6.43;4.00;;;;;;;27.85;52.84;100995.75;5191011;34;33774;-83
2023/09/08 10:10:31;;;;;;;6.22;4.12;;;;;;;27.64;53.64;100992.97;5200322;34;33802;-83
2023/09/08 10:13:40;;;;;;;8.13;4.45;;;;;;;27.73;51.12;100994.09;5206484;34;34096;-83
2023/09/08 10:16:49;;;;;;;6.18;4.20;;;;;;;27.74;52.32;100984.69;5203926;34;35314;-83
2023/09/08 10:19:55;;;;;;;11.30;4.45;;;;;;;27.86;53.17;100998.28;5197881;34;35095;-84
2023/09/08 10:23:09;;;;;;;5.22;3.90;;;;;;;28.03;51.22;100990.50;5201802;34;33956;-83
2023/09/08 10:26:15;;;;;;;5.65;3.95;;;;;;;28.18;49.53;100981.31;5200813;34;34779;-83
2023/09/08 10:29:19;;;;;;;6.05;4.05;;;;;;;28.51;48.71;100975.44;5200928;34;33617;-83
2023/09/08 10:32:22;;;;;;;7.25;3.95;;;;;;;28.36;48.58;100976.28;5178151;34;33684;-83
2023/09/08 10:35:26;;;;;;;6.50;4.40;;;;;;;28.60;49.66;100970.94;5187670;34;33780;-82
2023/09/08 10:38:32;;;;;;;5.00;4.10;;;;;;;28.67;49.28;100969.53;5190893;34;33874;-82
2023/09/08 10:41:36;;;;;;;6.15;3.70;;;;;;;29.13;45.74;100965.69;5195517;34;33878;-82
2023/09/08 10:44:39;;;;;;;6.28;3.87;;;;;;;28.89;45.88;100960.00;5207186;34;34944;-81
2023/09/08 10:47:45;;;;;;;5.53;3.87;;;;;;;28.81;43.84;100966.97;5202772;34;33775;-82
2023/09/08 10:50:48;;;;;;;7.12;3.33;;;;;;;29.02;43.82;100959.41;5212752;34;34179;-82
2023/09/08 10:53:51;;;;;;;4.53;3.35;;;;;;;29.13;42.02;100963.75;5190667;34;35054;-82
2023/09/08 10:56:56;;;;;;;4.55;3.67;;;;;;;29.80;44.70;100960.44;5180202;34;33840;-82
2023/09/08 11:00:11;;;;;;;5.37;3.47;;;;;;;29.90;41.43;100957.56;5191298;34;33813;-82
2023/09/08 11:03:26;;;;;;;5.65;3.60;;;;;;;30.03;38.33;100956.88;5211498;34;33943;-81
2023/09/08 11:06:31;;;;;;;4.45;3.33;;;;;;;30.32;40.41;100956.03;5195549;34;34722;-82
2023/09/08 11:09:37;;;;;;;7.10;3.67;;;;;;;30.23;36.60;100957.81;5191072;34;33613;-82
2023/09/08 11:12:40;;;;;;;4.80;3.22;;;;;;;30.04;36.61;100955.75;5191346;34;33482;-82
2023/09/08 11:15:43;;;;;;;5.85;3.22;;;;;;;30.59;35.91;100949.00;5190174;34;33644;-81
2023/09/08 11:18:47;;;;;;;3.58;3.08;;;;;;;31.01;34.30;100948.19;5202060;34;33765;-82
2023/09/08 11:21:49;;;;;;;4.45;3.33;;;;;;;31.68;33.66;100947.94;5200306;34;33440;-82
2023/09/08 11:24:56;;;;;;;3.53;3.20;;;;;;;32.25;32.20;100934.59;5189015;34;33989;-82
2023/09/08 11:28:00;;;;;;;5.15;3.65;;;;;;;33.27;31.35;100937.09;5197478;34;35359;-86
2023/09/08 11:31:04;;;;;;;5.25;3.20;;;;;;;33.49;31.02;100925.06;5185917;34;34821;-86
2023/09/08 11:34:08;;;;;;;4.25;3.10;;;;;;;34.17;29.34;100931.38;5200692;34;33670;-86
2023/09/08 11:37:14;;;;;;;4.05;2.90;;;;;;;33.62;29.09;100924.19;5212238;34;34631;-82
2023/09/08 11:40:19;;;;;;;4.28;2.97;;;;;;;34.57;27.60;100914.56;5210367;34;33940;-82
2023/09/08 11:43:22;;;;;;;4.60;3.12;;;;;;;35.00;26.36;100913.75;5192513;34;34756;-82
2023/09/08 11:46:25;;;;;;;3.83;3.20;;;;;;;36.07;24.53;100920.50;5196518;34;33830;-83
2023/09/08 11:49:36;;;;;;;3.62;2.92;;;;;;;37.19;23.52;100909.66;5201858;34;34789;-82
2023/09/08 11:52:40;;;;;;;6.07;3.08;;;;;;;38.27;22.60;100908.56;5206311;34;34702;-84
2023/09/08 11:55:44;;;;;;;4.20;2.87;;;;;;;39.37;21.10;100913.09;5191375;34;34367;-80
2023/09/08 11:58:47;;;;;;;5.37;3.00;;;;;;;39.72;20.68;100909.59;5200660;34;33806;-81
2023/09/08 12:01:50;;;;;;;5.78;3.10;;;;;;;41.53;19.00;100897.94;5207767;34;33616;-81
2023/09/08 12:04:54;;;;;;;3.37;2.85;;;;;;;40.34;20.55;100900.31;5179425;34;33721;-82
2023/09/08 12:07:58;;;;;;;3.60;2.75;;;;;;;41.40;19.64;100897.28;5195236;33;33325;-82
2023/09/08 12:11:02;;;;;;;4.80;2.65;;;;;;;42.60;18.63;100887.53;5220521;34;34689;-82
2023/09/08 12:14:08;;;;;;;4.75;2.60;;;;;;;43.91;18.26;100886.56;5208315;34;33809;-82
2023/09/08 12:17:14;;;;;;;;;;;;;;;44.00;17.94;100875.69;5212422;34;35640;-82
2023/09/08 12:20:17;;;;;;;6.47;2.80;;;;;;;43.08;17.93;100890.56;5211307;34;34282;-82
2023/09/08 12:23:22;;;;;;;8.25;2.83;;;;;;;41.57;18.08;100872.56;5179810;34;33386;-82
2023/09/08 12:26:25;;;;;;;3.58;2.90;;;;;;;42.26;17.25;100872.47;5220685;34;32860;-82
2023/09/08 12:29:28;;;;;;;3.22;2.78;;;;;;;42.84;17.79;100874.91;5185009;34;34705;-82
2023/09/08 12:32:32;;;;;;;3.30;3.00;;;;;;;43.34;16.57;100869.81;5191294;34;34818;-82
2023/09/08 12:35:35;;;;;;;3.92;2.53;;;;;;;43.85;16.19;100869.09;5203039;34;33915;-83
2023/09/08 12:38:38;;;;;;;2.55;2.35;;;;;;;44.94;15.54;100865.66;5191128;34;33921;-81
2023/09/08 12:41:41;;;;;;;3.65;2.65;;;;;;;45.25;14.62;100852.75;5179171;34;33953;-81
2023/09/08 12:44:44;;;;;;;3.47;2.60;;;;;;;44.25;16.17;100858.00;5196632;34;34136;-82
2023/09/08 12:47:48;;;;;;;4.50;2.70;;;;;;;41.88;17.55;100857.34;5169419;34;33499;-82
2023/09/08 12:50:50;;;;;;;4.10;2.72;;;;;;;42.55;17.07;100854.72;5190259;34;34674;-82
2023/09/08 12:53:54;;;;;;;4.47;2.83;;;;;;;44.83;14.93;100850.59;5200537;34;33848;-82
2023/09/08 12:56:57;;;;;;;2.62;2.40;;;;;;;44.75;15.24;100846.91;5180111;34;33578;-82
2023/09/08 13:00:00;;;;;;;5.97;2.72;;;;;;;45.18;14.85;100844.22;5190517;34;33917;-82
2023/09/08 13:03:03;;;;;;;4.40;2.55;;;;;;;45.33;14.78;100843.00;5202868;34;33922;-82
2023/09/08 13:06:08;;;;;;;4.45;2.75;;;;;;;43.25;16.34;100843.81;5196834;34;33909;-82
2023/09/08 13:09:11;;;;;;;2.80;2.58;;;;;;;45.15;14.93;100833.66;5194170;34;35244;-83
2023/09/08 13:12:14;;;;;;;6.18;2.60;;;;;;;45.76;15.05;100836.53;5194465;34;33936;-83
2023/09/08 13:15:17;;;;;;;3.55;2.30;;;;;;;46.41;14.50;100825.84;5183150;34;33548;-82
2023/09/08 13:18:20;;;;;;;3.50;2.60;;;;;;;45.72;14.33;100830.03;5192865;34;35840;-82
2023/09/08 13:21:23;;;;;;;3.53;2.70;;;;;;;44.78;14.77;100829.87;5183186;34;34983;-82
2023/09/08 13:24:26;;;;;;;3.33;2.62;;;;;;;45.63;15.25;100819.87;5178829;34;33587;-82
2023/09/08 13:27:29;;;;;;;3.10;2.67;;;;;;;46.08;14.55;100820.22;5190449;34;34850;-82
2023/09/08 13:30:32;;;;;;;3.50;2.53;;;;;;;46.70;13.79;100832.25;5191999;34;33793;-86
2023/09/08 13:33:34;;;;;;;2.83;2.62;;;;;;;45.44;14.64;100823.09;5194199;34;33936;-87
2023/09/08 13:36:38;;;;;;;3.85;2.30;;;;;;;45.80;14.18;100815.38;5192805;34;34581;-86
2023/09/08 13:39:40;;;;;;;18.10;3.62;;;;;;;43.61;15.24;100825.12;5178407;34;34505;-84
2023/09/08 13:42:44;;;;;;;4.90;2.40;;;;;;;43.14;15.41;100820.22;5189828;34;33887;-83
2023/09/08 13:45:47;;;;;;;7.37;2.62;;;;;;;44.50;14.71;100812.72;5172695;34;33722;-83
2023/09/08 13:48:51;;;;;;;3.55;2.50;;;;;;;42.86;15.81;100810.22;5183832;34;34993;-82
2023/09/08 13:51:55;;;;;;;4.93;2.42;;;;;;;43.48;16.06;100807.56;5184133;34;33940;-83
2023/09/08 13:55:00;;;;;;;3.25;2.47;;;;;;;43.11;15.95;100806.81;5170554;34;33767;-83
2023/09/08 13:58:23;;;;;;;4.32;2.80;;;;;;;43.00;15.93;100799.03;5198048;34;33888;-83
2023/09/08 14:01:29;;;;;;;2.83;2.30;;;;;;;42.34;16.55;100804.31;5211998;34;33984;-83
2023/09/08 14:04:39;;;;;;;2.50;2.30;;;;;;;41.31;17.24;100791.34;5195667;34;34332;-83
2023/09/08 14:07:43;;;;;;;3.70;2.83;;;;;;;39.27;18.94;100798.91;5199610;34;35203;-83
2023/09/08 14:10:53;;;;;;;3.22;2.80;;;;;;;37.55;20.81;100802.19;5196423;34;34725;-83
2023/09/08 14:13:59;;;;;;;3.12;2.62;;;;;;;35.11;22.88;100794.75;5219947;34;33488;-83
2023/09/08 14:17:04;;;;;;;3.62;2.78;;;;;;;33.91;24.61;100791.56;5172182;34;33437;-83
2023/09/08 14:20:08;;;;;;;3.58;2.83;;;;;;;33.38;25.42;100782.16;5223726;34;33522;-83
2023/09/08 14:23:12;;;;;;;4.22;2.90;;;;;;;31.86;27.43;100790.28;5195684;34;33875;-83
2023/09/08 14:26:15;;;;;;;4.65;2.78;;;;;;;31.85;28.01;100781.09;5191857;34;34899;-83
2023/09/08 14:29:18;;;;;;;3.45;3.12;;;;;;;31.25;28.59;100792.28;5203567;34;33405;-83
2023/09/08 14:32:20;;;;;;;4.40;3.30;;;;;;;30.45;29.54;100780.25;5190823;34;33504;-83
2023/09/08 14:35:24;;;;;;;4.37;3.00;;;;;;;30.45;29.59;100782.19;5179630;34;35403;-83
2023/09/08 14:38:26;;;;;;;4.22;2.90;;;;;;;30.36;29.67;100775.66;5168848;34;33648;-83
2023/09/08 14:41:30;;;;;;;6.03;3.30;;;;;;;29.98;30.27;100784.81;5190667;34;33786;-83
2023/09/08 14:44:33;;;;;;;4.68;3.30;;;;;;;29.41;31.46;100782.97;5190603;34;33625;-83
2023/09/08 14:47:36;;;;;;;5.43;3.35;;;;;;;29.47;31.86;100779.81;5190897;34;33651;-83
2023/09/08 14:50:39;;;;;;;3.60;3.20;;;;;;;29.20;32.35;100772.09;5203468;34;34602;-83
2023/09/08 14:53:43;;;;;;;4.93;3.55;;;;;;;28.84;32.41;100771.53;5191088;34;33556;-82
2023/09/08 14:56:46;;;;;;;8.32;3.55;;;;;;;28.79;32.42;100771.63;5203700;34;33568;-82
2023/09/08 14:59:54;;;;;;;6.62;3.28;;;;;;;28.78;32.60;100775.47;5192144;34;34615;-82
2023/09/08 15:02:59;;;;;;;6.80;3.50;;;;;;;28.41;32.67;100765.78;5180634;34;34276;-83
2023/09/08 15:06:02;;;;;;;7.93;3.62;;;;;;;28.32;33.49;100767.50;5190753;34;33563;-83
2023/09/08 15:09:05;;;;;;;3.40;3.10;;;;;;;28.21;34.23;100759.25;5193002;34;34365;-83
2023/09/08 15:12:09;;;;;;;4.72;3.37;;;;;;;28.03;33.37;100765.47;5194428;34;34000;-87
2023/09/08 15:15:12;;;;;;;4.40;3.53;;;;;;;27.91;32.60;100779.63;5207675;34;33811;-87
2023/09/08 15:18:16;;;;;;;4.82;3.35;;;;;;;27.79;32.40;100774.44;5186149;34;252219;-87
2023/09/08 15:21:25;;;;;;;6.45;3.53;;;;;;;27.54;32.97;100766.19;5195342;34;34399;-84
2023/09/08 15:24:28;;;;;;;8.30;3.92;;;;;;;27.50;33.08;100770.62;5190714;34;33967;-84
2023/09/08 15:27:31;;;;;;;4.87;3.42;;;;;;;27.43;34.03;100765.38;5190565;34;33267;-84
2023/09/08 15:30:34;;;;;;;5.65;3.33;;;;;;;27.41;34.61;100770.38;5190946;34;33925;-83
2023/09/08 15:33:37;;;;;;;6.20;3.28;;;;;;;27.42;34.85;100762.91;5190405;34;35084;-83
2023/09/08 15:36:41;;;;;;;4.90;3.40;;;;;;;27.23;34.92;100765.44;5191057;34;33533;-84
2023/09/08 15:39:44;;;;;;;3.75;3.28;;;;;;;27.19;34.53;100762.41;5190687;34;34417;-84
2023/09/08 15:42:50;;;;;;;4.53;3.62;;;;;;;27.23;34.37;100766.28;5190791;34;33944;-84
2023/09/08 15:45:53;;;;;;;5.65;3.37;;;;;;;27.12;34.82;100759.91;5203321;34;33908;-83
2023/09/08 15:48:56;;;;;;;3.60;3.20;;;;;;;26.96;35.18;100763.78;5202995;34;34487;-83
2023/09/08 15:52:00;;;;;;;5.05;3.60;;;;;;;26.91;35.19;100758.25;5190480;34;34180;-83
2023/09/08 15:55:17;;;;;;;4.32;3.50;;;;;;;26.88;35.75;100765.19;5192148;34;33926;-83
2023/09/08 15:58:20;;;;;;;4.35;3.22;;;;;;;26.81;35.66;100761.88;5190387;34;35084;-83
2023/09/08 16:01:24;;;;;;;3.95;3.20;;;;;;;26.81;35.18;100756.34;5190705;34;33545;-83
2023/09/08 16:04:27;;;;;;;6.80;3.45;;;;;;;26.71;35.65;100755.53;5190533;34;33267;-83
2023/09/08 16:07:31;;;;;;;5.53;3.40;;;;;;;26.63;35.62;100754.97;5190681;34;33816;-84
2023/09/08 16:10:34;;;;;;;4.72;3.30;;;;;;;26.58;35.75;100751.38;5190806;34;34040;-84
2023/09/08 16:13:37;;;;;;;5.37;4.35;;;;;;;26.55;36.04;100758.28;5203313;34;33846;-83
2023/09/08 16:16:40;;;;;;;8.20;3.67;;;;;;;26.42;35.68;100747.75;5190625;34;33908;-84
2023/09/08 16:19:43;;;;;;;7.68;3.70;;;;;;;26.44;35.72;100751.91;5202646;34;35691;-83
2023/09/08 16:22:47;;;;;;;5.30;3.40;;;;;;;26.44;35.57;100751.03;5190349;34;33904;-83
2023/09/08 16:25:50;;;;;;;6.62;3.92;;;;;;;26.36;35.44;100752.44;5190436;34;34182;-84
2023/09/08 16:28:53;;;;;;;5.25;3.70;;;;;;;26.25;35.89;100745.22;5190186;34;33936;-83
2023/09/08 16:31:56;;;;;;;6.75;3.75;;;;;;;26.15;36.11;100746.06;5203145;34;33889;-83
2023/09/08 16:34:59;;;;;;;6.57;4.05;;;;;;;26.07;36.46;100748.50;5190278;34;34031;-83
2023/09/08 16:38:03;;;;;;;8.02;4.20;;;;;;;25.95;36.84;100757.84;5190158;34;34494;-83
2023/09/08 16:41:06;;;;;;;5.18;3.30;;;;;;;25.87;37.21;100750.09;5202879;34;34809;-83
2023/09/08 16:44:09;;;;;;;7.50;3.83;;;;;;;25.78;37.55;100754.47;5190464;34;33419;-83
2023/09/08 16:47:12;;;;;;;5.35;3.50;;;;;;;25.72;38.16;100756.34;5202994;34;33821;-83
2023/09/08 16:50:15;;;;;;;7.68;3.20;;;;;;;25.63;38.77;100759.91;5203118;34;33569;-83
2023/09/08 16:53:18;;;;;;;5.22;3.35;;;;;;;25.48;39.87;100752.41;5190487;34;33967;-83
2023/09/08 16:56:21;;;;;;;5.95;3.58;;;;;;;25.41;40.04;100760.06;5190623;34;35007;-83
2023/09/08 16:59:24;;;;;;;8.38;3.78;;;;;;;25.32;40.00;100757.81;5191175;34;33953;-83
2023/09/08 17:02:29;;;;;;;5.07;3.60;;;;;;;25.20;40.80;100754.44;5198521;34;34074;-83
2023/09/08 17:05:32;;;;;;;5.70;3.65;;;;;;;25.04;42.15;100759.00;5205050;34;34345;-84
2023/09/08 17:08:35;;;;;;;7.05;4.50;;;;;;;24.91;42.25;100759.44;5191758;34;34617;-83
2023/09/08 17:11:40;;;;;;;6.15;3.90;;;;;;;24.79;42.68;100764.31;5201479;34;34688;-83
2023/09/08 17:14:42;;;;;;;6.50;3.78;;;;;;;24.64;42.83;100763.06;5216222;34;35452;-87
2023/09/08 17:17:45;;;;;;;7.55;3.70;;;;;;;24.55;42.97;100761.91;5194623;34;34283;-87
2023/09/08 17:20:48;;;;;;;6.12;3.65;;;;;;;24.50;44.29;100766.53;5195639;34;33997;-88
2023/09/08 17:23:51;;;;;;;8.45;4.37;;;;;;;24.34;46.08;100768.28;5193079;34;33920;-88
2023/09/08 17:26:55;;;;;;;7.55;4.12;;;;;;;24.25;47.98;100769.81;5192137;34;34048;-84
